Time;durP1;ratioP1;P1;durP2;ratioP2;P2;SDS_P1;SDS_P2;PMS_P1;PMS_P2;Temp;Humidity;BMP_temperature;BMP_pressure;BME280_temperature;BME280_humidity;BME280_pressure;Samples;Min_cycle;Max_cycle;Signal;HPM_P1;HPM_P2
2022/12/20 00:01:53;;;;;;;24.00;9.90;;;;;;;-0.05;66.35;100088.29;103181;1296;97886;-68
2022/12/20 00:04:22;;;;;;;21.90;8.30;;;;;;;-0.03;66.61;100090.88;103352;1301;111793;-66
2022/12/20 00:06:50;;;;;;;25.10;10.20;;;;;;;-0.01;66.62;100082.48;103321;1287;97880;-67
2022/12/20 00:09:20;;;;;;;22.50;9.10;;;;;;;0.01;66.77;100081.56;103173;1304;108107;-67
2022/12/20 00:11:48;;;;;;;25.60;9.80;;;;;;;0.03;66.87;100083.98;103163;1303;97873;-66
2022/12/20 00:14:18;;;;;;;22.30;8.50;;;;;;;0.05;66.67;100086.76;103367;1293;95099;-67
2022/12/20 00:16:49;;;;;;;24.10;9.40;;;;;;;0.07;66.34;100087.08;103353;1293;112444;-67
2022/12/20 00:19:18;;;;;;;25.10;9.50;;;;;;;0.09;66.57;100081.46;103332;1300;97883;-67
2022/12/20 00:21:46;;;;;;;25.90;9.40;;;;;;;0.11;66.54;100073.08;103159;1297;108149;-68
2022/12/20 00:24:14;;;;;;;22.60;8.90;;;;;;;0.12;66.53;100073.40;103229;1294;96303;-68
2022/12/20 00:26:52;;;;;;;22.50;9.20;;;;;;;0.13;66.46;100072.19;103193;1297;98047;-67
2022/12/20 00:29:20;;;;;;;24.00;9.50;;;;;;;0.14;66.24;100066.23;103378;1296;111909;-66
2022/12/20 00:31:49;;;;;;;25.00;9.10;;;;;;;0.15;66.46;100063.78;103327;1294;97938;-67
2022/12/20 00:34:19;;;;;;;27.70;9.90;;;;;;;0.15;66.57;100058.55;103285;1295;108135;-67
2022/12/20 00:36:49;;;;;;;22.70;9.10;;;;;;;0.16;66.50;100058.18;103344;1294;97888;-67
2022/12/20 00:39:18;;;;;;;25.40;10.60;;;;;;;0.16;66.85;100053.83;103334;1300;97924;-67
2022/12/20 00:41:46;;;;;;;23.20;9.30;;;;;;;0.16;66.68;100050.67;103350;1293;111722;-67
2022/12/20 00:44:14;;;;;;;23.70;9.30;;;;;;;0.17;66.90;100044.73;103288;1301;98547;-66
2022/12/20 00:46:42;;;;;;;22.90;9.30;;;;;;;0.17;66.82;100043.17;103352;1301;107784;-69
2022/12/20 00:49:11;;;;;;;23.20;9.90;;;;;;;0.18;66.23;100047.35;103239;1293;97925;-67
2022/12/20 00:51:39;;;;;;;24.70;10.20;;;;;;;0.20;65.88;100038.41;103246;1294;97878;-66
2022/12/20 00:54:07;;;;;;;25.70;10.50;;;;;;;0.23;66.31;100039.58;103215;1293;111424;-67
2022/12/20 00:56:37;;;;;;;24.40;10.40;;;;;;;0.23;66.28;100041.49;103229;1298;97670;-67
2022/12/20 00:59:05;;;;;;;25.10;9.80;;;;;;;0.24;65.74;100035.55;103277;1300;106561;-67
2022/12/20 01:01:33;;;;;;;24.00;9.50;;;;;;;0.24;66.24;100036.42;103197;1301;95543;-66
2022/12/20 01:04:05;;;;;;;24.80;9.70;;;;;;;0.26;66.21;100023.67;103241;1302;97866;-66
2022/12/20 01:06:34;;;;;;;25.00;10.50;;;;;;;0.26;65.89;100020.52;103218;1301;111741;-67
2022/12/20 01:09:04;;;;;;;24.10;9.50;;;;;;;0.28;66.39;100019.63;103243;1300;95299;-67
2022/12/20 01:11:35;;;;;;;23.30;9.20;;;;;;;0.29;65.98;100024.84;103232;1288;107474;-67
2022/12/20 01:14:09;;;;;;;24.30;9.10;;;;;;;0.31;66.52;100029.18;103193;1287;95112;-66
2022/12/20 01:16:41;;;;;;;23.20;9.80;;;;;;;0.33;66.56;100036.48;103149;1295;97851;-66
2022/12/20 01:19:12;;;;;;;23.60;10.00;;;;;;;0.35;66.52;100031.73;103243;1303;111174;-66
2022/12/20 01:21:43;;;;;;;22.90;8.70;;;;;;;0.37;66.59;100035.72;103166;1297;97964;-66
2022/12/20 01:24:18;;;;;;;24.10;9.20;;;;;;;0.39;66.77;100033.60;103283;1301;107486;-68
2022/12/20 01:26:48;;;;;;;24.70;10.90;;;;;;;0.41;66.52;100029.20;103326;1294;96214;-67
2022/12/20 01:29:18;;;;;;;24.00;10.10;;;;;;;0.42;66.29;100035.98;103259;1294;95263;-67
2022/12/20 01:31:46;;;;;;;24.00;9.70;;;;;;;0.43;66.25;100026.90;103204;1295;111838;-66
2022/12/20 01:34:17;;;;;;;23.60;9.60;;;;;;;0.43;66.12;100026.38;103250;1301;97811;-67
2022/12/20 01:36:45;;;;;;;24.40;10.10;;;;;;;0.43;66.54;100024.96;103200;1294;108075;-66
2022/12/20 01:39:16;;;;;;;22.10;9.40;;;;;;;0.43;66.04;100032.82;103232;1301;97860;-66
2022/12/20 01:41:46;;;;;;;24.70;10.30;;;;;;;0.42;66.35;100030.91;103279;1300;97941;-66
2022/12/20 01:44:17;;;;;;;25.10;9.70;;;;;;;0.41;66.47;100029.36;103212;1301;111829;-66
2022/12/20 01:46:48;;;;;;;20.60;8.20;;;;;;;0.40;66.50;100023.29;103295;1295;97874;-66
2022/12/20 01:49:37;;;;;;;24.10;10.10;;;;;;;0.39;66.00;100018.95;103206;1301;106175;-67
2022/12/20 01:52:16;;;;;;;24.00;10.20;;;;;;;0.39;66.14;100015.45;103202;1301;97972;-67
2022/12/20 01:55:08;;;;;;;24.80;10.20;;;;;;;0.40;66.17;100016.66;103289;1300;98014;-66
2022/12/20 01:58:00;;;;;;;24.50;9.80;;;;;;;0.41;66.46;100019.95;103331;1297;111775;-67
2022/12/20 02:00:30;;;;;;;23.80;11.00;;;;;;;0.41;66.06;100023.23;103231;1302;96947;-67
2022/12/20 02:03:03;;;;;;;23.00;9.70;;;;;;;0.43;66.58;100022.01;103223;1294;108262;-66
2022/12/20 02:05:38;;;;;;;19.20;7.80;;;;;;;0.45;66.38;100026.87;103321;1305;98533;-66
2022/12/20 02:08:10;;;;;;;24.90;10.00;;;;;;;0.47;66.07;100023.00;103287;1295;98522;-66
2022/12/20 02:10:57;;;;;;;26.10;9.20;;;;;;;0.49;66.36;100025.94;103249;1294;111270;-66
2022/12/20 02:13:55;;;;;;;22.80;8.40;;;;;;;0.52;66.54;100028.69;103203;1301;97700;-66
2022/12/20 02:16:28;;;;;;;21.00;8.60;;;;;;;0.53;66.49;100022.04;103204;1294;107520;-66
2022/12/20 02:19:22;;;;;;;24.40;10.10;;;;;;;0.54;66.25;100024.80;103072;1304;98088;-66
2022/12/20 02:22:26;;;;;;;24.50;9.30;;;;;;;0.56;66.39;100027.92;103235;1300;97841;-67
2022/12/20 02:25:12;;;;;;;23.10;9.10;;;;;;;0.56;66.26;100028.96;103247;1296;111799;-66
2022/12/20 02:27:46;;;;;;;23.00;8.80;;;;;;;0.56;66.32;100027.23;103238;1301;97939;-67
2022/12/20 02:30:26;;;;;;;23.90;9.80;;;;;;;0.56;66.05;100028.78;103206;1287;107971;-67
2022/12/20 02:33:10;;;;;;;24.20;10.30;;;;;;;0.55;66.23;100025.14;103195;1300;97957;-66
2022/12/20 02:35:42;;;;;;;24.30;10.00;;;;;;;0.55;66.45;100024.10;103287;1294;97893;-68
2022/12/20 02:38:44;;;;;;;24.00;9.20;;;;;;;0.55;66.57;100024.27;103236;1293;111501;-67
2022/12/20 02:41:30;;;;;;;25.70;9.40;;;;;;;0.55;66.57;100025.48;103044;1301;96301;-67
2022/12/20 02:47:04;;;;;;;23.80;9.90;;;;;;;0.57;66.74;100025.64;103047;1301;97933;-68
2022/12/20 02:49:40;;;;;;;23.20;9.80;;;;;;;0.57;66.67;100026.69;103305;1294;95186;-67
2022/12/20 02:52:14;;;;;;;25.80;9.50;;;;;;;0.56;66.76;100029.14;103344;1295;112020;-66
2022/12/20 02:54:42;;;;;;;27.40;10.20;;;;;;;0.57;66.41;100024.24;103379;1298;97980;-68
2022/12/20 02:57:19;;;;;;;23.80;9.80;;;;;;;0.57;66.75;100020.39;103352;1302;107121;-66
2022/12/20 03:00:06;;;;;;;24.20;10.40;;;;;;;0.58;66.73;100014.10;103298;1301;98112;-66
2022/12/20 03:05:27;;;;;;;24.10;9.60;;;;;;;0.60;66.56;100010.23;103290;1293;111158;-68
2022/12/20 03:07:55;;;;;;;23.70;9.80;;;;;;;0.59;66.58;100005.00;103329;1301;95643;-66
2022/12/20 03:10:26;;;;;;;24.20;11.10;;;;;;;0.60;66.60;100001.16;103197;1293;108385;-67
2022/12/20 03:12:54;;;;;;;25.80;10.60;;;;;;;0.61;66.74;100003.23;103242;1301;98026;-66
2022/12/20 03:15:22;;;;;;;23.70;9.60;;;;;;;0.61;66.66;100003.23;103230;1294;95130;-67
2022/12/20 03:17:51;;;;;;;23.70;9.40;;;;;;;0.60;66.63;100005.53;103231;1297;111698;-67
2022/12/20 03:20:19;;;;;;;24.00;10.00;;;;;;;0.58;66.83;99994.90;103257;1294;95555;-66
2022/12/20 03:22:46;;;;;;;27.70;10.20;;;;;;;0.56;66.83;99990.23;103211;1298;108101;-67
2022/12/20 03:25:16;;;;;;;22.40;9.40;;;;;;;0.56;66.97;99993.19;103216;1301;97935;-66
2022/12/20 03:27:46;;;;;;;26.80;10.00;;;;;;;0.55;66.85;99991.27;103292;1294;98109;-67
2022/12/20 03:30:16;;;;;;;26.10;11.60;;;;;;;0.54;66.77;99989.73;103321;1300;111773;-66
2022/12/20 03:32:44;;;;;;;25.20;10.20;;;;;;;0.52;66.83;99992.90;103262;1300;97962;-66
2022/12/20 03:35:11;;;;;;;24.20;9.70;;;;;;;0.49;67.04;99985.45;103329;1301;108175;-68
2022/12/20 03:37:41;;;;;;;25.50;10.10;;;;;;;0.47;67.10;99980.23;103306;1294;97989;-68
2022/12/20 03:40:11;;;;;;;24.50;9.90;;;;;;;0.45;67.08;99981.67;103258;1302;97802;-68
2022/12/20 03:42:39;;;;;;;26.90;10.40;;;;;;;0.42;67.38;99978.41;103336;1295;111663;-67
2022/12/20 03:45:09;;;;;;;25.30;9.80;;;;;;;0.42;67.24;99977.54;103250;1300;98518;-67
2022/12/20 03:47:39;;;;;;;26.50;9.90;;;;;;;0.40;67.41;99974.59;103086;1301;108744;-67
2022/12/20 03:50:09;;;;;;;26.60;10.00;;;;;;;0.39;67.48;99973.75;103276;1298;98311;-70
2022/12/20 03:52:37;;;;;;;28.30;11.30;;;;;;;0.39;67.81;99969.55;103353;1301;98043;-67
2022/12/20 03:55:08;;;;;;;25.70;10.30;;;;;;;0.37;67.65;99964.70;103312;1300;111471;-67
2022/12/20 03:57:36;;;;;;;25.50;10.60;;;;;;;0.34;67.68;99959.86;103288;1296;97996;-67
2022/12/20 04:00:06;;;;;;;25.10;10.30;;;;;;;0.32;67.68;99953.96;103285;1301;108172;-67
2022/12/20 04:02:34;;;;;;;24.90;10.80;;;;;;;0.32;67.77;99950.83;103301;1300;95167;-66
2022/12/20 04:05:07;;;;;;;25.50;10.50;;;;;;;0.33;67.78;99958.84;103332;1304;97905;-67
2022/12/20 04:07:35;;;;;;;25.00;10.60;;;;;;;0.30;68.01;99961.14;103330;1294;111563;-66
2022/12/20 04:10:04;;;;;;;26.70;11.90;;;;;;;0.29;67.86;99958.20;103286;1300;97910;-67
2022/12/20 04:12:32;;;;;;;28.40;11.10;;;;;;;0.30;67.90;99956.27;103346;1294;108620;-66
2022/12/20 04:14:59;;;;;;;28.10;12.20;;;;;;;0.31;67.98;99959.39;103248;1285;97949;-66
2022/12/20 04:17:27;;;;;;;25.30;10.70;;;;;;;0.31;68.21;99958.69;103231;1295;97827;-67
2022/12/20 04:19:55;;;;;;;26.10;10.80;;;;;;;0.30;68.31;99951.91;103231;1294;110886;-68
2022/12/20 04:22:23;;;;;;;24.90;9.90;;;;;;;0.29;67.94;99953.49;103297;1301;97962;-67
2022/12/20 04:24:51;;;;;;;24.30;10.50;;;;;;;0.28;68.18;99951.05;103258;1298;108150;-67
2022/12/20 04:27:19;;;;;;;22.90;9.70;;;;;;;0.27;68.55;99954.76;103329;1291;97733;-66
2022/12/20 04:29:47;;;;;;;24.80;10.70;;;;;;;0.25;68.39;99950.23;103317;1300;99303;-66
2022/12/20 04:32:15;;;;;;;23.90;10.80;;;;;;;0.25;68.27;99956.16;103318;1294;113128;-67
2022/12/20 04:34:43;;;;;;;26.20;10.50;;;;;;;0.26;68.44;99959.11;103275;1301;97674;-66
2022/12/20 04:37:11;;;;;;;25.90;10.70;;;;;;;0.28;68.37;99954.73;103301;1301;108095;-67
2022/12/20 04:39:39;;;;;;;27.90;11.60;;;;;;;0.31;68.45;99952.59;103267;1295;99296;-66
2022/12/20 04:42:08;;;;;;;25.10;10.50;;;;;;;0.32;68.49;99950.11;103206;1301;99127;-67
2022/12/20 04:44:35;;;;;;;27.50;11.20;;;;;;;0.34;68.42;99930.39;103212;1301;113096;-67
2022/12/20 04:47:03;;;;;;;25.70;10.40;;;;;;;0.33;69.02;99922.20;103154;1295;121102;-66
2022/12/20 04:49:31;;;;;;;28.40;12.00;;;;;;;0.32;69.30;99918.55;103341;1300;107400;-66
2022/12/20 04:53:46;;;;;;;28.70;12.20;;;;;;;0.31;69.00;99907.76;103287;1302;99338;-66
2022/12/20 04:54:47;;;;;;;27.60;11.60;;;;;;;0.30;69.34;99902.35;103294;1300;98375;-66
2022/12/20 04:57:15;;;;;;;28.90;12.70;;;;;;;0.28;69.28;99896.10;103198;1295;112843;-66
2022/12/20 04:59:44;;;;;;;27.50;11.40;;;;;;;0.28;68.90;99893.66;103212;1294;99296;-66
2022/12/20 05:02:12;;;;;;;26.10;11.50;;;;;;;0.29;69.14;99895.75;103700;1301;108216;-65
2022/12/20 05:04:42;;;;;;;29.30;11.80;;;;;;;0.29;69.16;99894.53;103345;1293;99225;-67
2022/12/20 05:07:10;;;;;;;23.70;10.10;;;;;;;0.28;68.76;99900.45;103344;1292;97625;-66
2022/12/20 05:09:38;;;;;;;26.60;11.20;;;;;;;0.29;69.03;99898.35;103287;1298;113146;-66
2022/12/20 05:12:07;;;;;;;26.80;10.30;;;;;;;0.30;69.21;99899.39;103327;1294;97608;-67
2022/12/20 05:14:35;;;;;;;28.50;12.00;;;;;;;0.31;69.11;99900.42;103330;1295;106790;-66
2022/12/20 05:17:03;;;;;;;27.30;11.40;;;;;;;0.32;69.61;99898.29;103299;1295;99211;-68
2022/12/20 05:19:31;;;;;;;26.00;10.70;;;;;;;0.34;69.15;99896.36;103299;1295;99764;-67
2022/12/20 05:27:36;;;;;;;25.80;10.90;;;;;;;0.38;69.30;99879.71;103179;1298;108114;-67
2022/12/20 05:30:06;;;;;;;25.00;10.20;;;;;;;0.39;69.02;99869.93;103248;1302;96545;-67
2022/12/20 05:32:34;;;;;;;26.10;10.50;;;;;;;0.41;69.51;99868.14;103285;1295;99230;-67
2022/12/20 05:35:05;;;;;;;27.30;12.40;;;;;;;0.41;69.34;99865.33;103325;1295;113144;-68
2022/12/20 05:37:32;;;;;;;24.90;10.30;;;;;;;0.41;69.38;99860.09;103293;1294;99233;-67
2022/12/20 05:40:06;;;;;;;28.70;11.70;;;;;;;0.43;69.37;99872.11;103321;1300;105800;-66
2022/12/20 05:42:34;;;;;;;27.20;10.60;;;;;;;0.46;69.52;99877.47;103280;1293;97601;-66
2022/12/20 05:45:05;;;;;;;27.40;11.20;;;;;;;0.47;69.19;99868.73;103297;1300;99222;-67
2022/12/20 05:47:33;;;;;;;25.60;10.40;;;;;;;0.49;69.36;99870.60;103288;1300;112628;-66
2022/12/20 05:50:03;;;;;;;27.90;10.90;;;;;;;0.51;69.22;99866.39;103254;1294;99282;-66
2022/12/20 05:52:31;;;;;;;26.20;11.00;;;;;;;0.53;69.14;99864.95;103245;1294;108132;-67
2022/12/20 05:55:03;;;;;;;27.60;11.00;;;;;;;0.56;69.19;99865.77;103078;1300;99322;-67
2022/12/20 05:57:31;;;;;;;25.40;10.60;;;;;;;0.59;68.94;99845.47;103316;1302;98299;-67
2022/12/20 05:59:59;;;;;;;29.30;11.50;;;;;;;0.60;69.22;99847.55;103276;1295;113086;-67
2022/12/20 06:02:29;;;;;;;25.60;10.30;;;;;;;0.62;68.90;99861.63;103211;1303;99241;-67
2022/12/20 06:04:59;;;;;;;24.50;10.00;;;;;;;0.65;69.03;99867.52;103221;1294;108005;-68
2022/12/20 06:07:29;;;;;;;26.50;11.00;;;;;;;0.67;69.19;99872.20;103226;1300;99379;-67
2022/12/20 06:09:59;;;;;;;24.90;10.10;;;;;;;0.67;69.16;99861.36;103288;1295;99196;-67
2022/12/20 06:12:27;;;;;;;23.50;10.90;;;;;;;0.68;69.09;99859.26;103218;1294;113157;-67
2022/12/20 06:14:57;;;;;;;25.20;11.10;;;;;;;0.70;69.12;99855.20;103456;1298;97751;-67
2022/12/20 06:17:25;;;;;;;26.80;10.40;;;;;;;0.73;69.13;99857.25;103194;1296;108142;-66
2022/12/20 06:19:54;;;;;;;29.30;11.90;;;;;;;0.74;69.22;99862.29;103144;1295;99319;-66
2022/12/20 06:22:22;;;;;;;29.00;11.40;;;;;;;0.76;68.78;99861.91;103228;1302;99241;-66
2022/12/20 06:24:50;;;;;;;27.00;10.90;;;;;;;0.78;68.91;99869.20;103067;1306;113372;-66
2022/12/20 06:27:20;;;;;;;27.00;11.40;;;;;;;0.79;68.68;99872.52;103206;1302;99218;-67
2022/12/20 06:29:53;;;;;;;24.90;9.40;;;;;;;0.79;68.84;99860.27;104077;1302;107997;-67
2022/12/20 06:32:21;;;;;;;28.90;12.10;;;;;;;0.80;68.40;99865.30;103203;1301;99236;-66
2022/12/20 06:34:50;;;;;;;27.00;10.70;;;;;;;0.82;68.81;99859.16;103185;1305;99098;-67
2022/12/20 06:37:18;;;;;;;25.30;12.20;;;;;;;0.83;68.70;99858.60;103951;1288;113104;-67
2022/12/20 06:39:46;;;;;;;27.10;10.90;;;;;;;0.85;68.93;99855.79;103238;1300;97721;-67
2022/12/20 06:42:13;;;;;;;27.20;11.10;;;;;;;0.87;68.67;99860.79;103304;1294;108080;-66
2022/12/20 06:44:42;;;;;;;25.90;10.40;;;;;;;0.89;68.84;99853.61;103226;1299;99224;-67
2022/12/20 06:47:11;;;;;;;24.70;10.10;;;;;;;0.89;68.64;99856.04;103220;1300;99227;-67
2022/12/20 06:49:39;;;;;;;24.00;9.80;;;;;;;0.90;68.67;99857.77;103259;1300;112816;-67
2022/12/20 06:52:08;;;;;;;25.10;10.10;;;;;;;0.91;68.48;99853.38;103212;1294;99194;-66
2022/12/20 06:54:36;;;;;;;26.80;10.30;;;;;;;0.93;68.68;99851.09;103178;1298;108038;-67
2022/12/20 06:57:05;;;;;;;25.90;10.40;;;;;;;0.94;68.47;99848.81;103219;1301;99207;-67
2022/12/20 06:59:35;;;;;;;23.50;10.10;;;;;;;0.95;68.67;99842.32;103228;1293;99333;-67
2022/12/20 07:02:03;;;;;;;26.60;10.20;;;;;;;0.95;68.59;99848.95;103215;1300;112759;-69
2022/12/20 07:04:36;;;;;;;27.40;11.60;;;;;;;0.96;68.22;99851.73;103237;1294;99251;-71
2022/12/20 07:07:06;;;;;;;24.70;10.80;;;;;;;0.97;68.78;99852.94;103250;1300;108252;-66
2022/12/20 07:09:40;;;;;;;25.30;10.70;;;;;;;0.97;68.77;99856.59;103251;1297;99671;-65
2022/12/20 07:12:10;;;;;;;26.50;10.60;;;;;;;0.98;68.77;99860.07;103153;1303;99676;-67
2022/12/20 07:14:38;;;;;;;25.60;10.20;;;;;;;0.97;68.33;99859.20;103234;1299;110904;-67
2022/12/20 07:17:08;;;;;;;24.90;10.70;;;;;;;0.96;68.79;99856.44;103282;1300;99333;-67
2022/12/20 07:19:38;;;;;;;23.20;10.60;;;;;;;0.95;68.74;99850.86;103310;1295;108658;-67
2022/12/20 07:22:19;;;;;;;27.10;10.50;;;;;;;0.95;68.73;99855.94;103325;1300;99243;-66
2022/12/20 07:24:49;;;;;;;27.30;10.80;;;;;;;0.96;68.75;99854.17;103362;1299;99216;-66
2022/12/20 07:27:17;;;;;;;23.10;10.70;;;;;;;0.97;68.54;99857.98;103350;1301;112959;-68
2022/12/20 07:29:46;;;;;;;26.90;11.20;;;;;;;0.98;68.78;99859.71;103332;1296;99355;-68
2022/12/20 07:32:14;;;;;;;25.00;10.80;;;;;;;1.00;68.66;99854.45;103282;1300;108513;-68
2022/12/20 07:34:44;;;;;;;28.10;11.30;;;;;;;1.01;68.30;99862.08;103283;1294;99888;-68
2022/12/20 07:37:12;;;;;;;26.20;10.40;;;;;;;1.02;68.04;99855.95;103308;1300;97948;-67
2022/12/20 07:39:41;;;;;;;24.50;9.50;;;;;;;1.04;68.33;99856.25;103349;1295;113173;-70
2022/12/20 07:42:12;;;;;;;26.00;11.50;;;;;;;1.06;67.70;99857.63;103239;1303;99222;-69
2022/12/20 07:44:44;;;;;;;24.70;10.00;;;;;;;1.09;68.27;99851.81;103284;1295;107841;-67
2022/12/20 07:47:14;;;;;;;29.20;11.50;;;;;;;1.10;68.20;99853.88;103303;1294;99122;-70
2022/12/20 07:49:44;;;;;;;27.60;11.70;;;;;;;1.11;67.96;99850.02;103317;1294;99338;-68
2022/12/20 07:52:16;;;;;;;25.70;11.60;;;;;;;1.13;68.00;99848.75;103270;1303;112698;-68
2022/12/20 07:54:59;;;;;;;26.30;11.60;;;;;;;1.15;68.04;99840.67;103278;1302;99211;-68
2022/12/20 07:57:45;;;;;;;24.90;11.00;;;;;;;1.19;68.26;99836.21;103179;1300;107456;-67
2022/12/20 08:00:17;;;;;;;28.00;11.90;;;;;;;1.23;67.72;99838.90;103301;1300;99222;-66
2022/12/20 08:02:55;;;;;;;26.40;10.90;;;;;;;1.27;68.27;99836.55;103308;1300;96746;-67
2022/12/20 08:05:23;;;;;;;24.10;9.70;;;;;;;1.34;68.06;99839.90;103253;1295;112446;-67
2022/12/20 08:07:57;;;;;;;28.40;11.70;;;;;;;1.40;67.94;99830.88;103347;1300;99288;-67
2022/12/20 08:10:29;;;;;;;22.50;10.10;;;;;;;1.46;67.82;99832.63;103304;1296;107516;-67
2022/12/20 08:12:59;;;;;;;25.90;10.50;;;;;;;1.52;67.64;99830.94;103347;1300;97711;-67
2022/12/20 08:15:29;;;;;;;27.70;11.60;;;;;;;1.58;67.45;99833.59;103355;1295;98369;-67
2022/12/20 08:17:58;;;;;;;25.00;10.70;;;;;;;1.62;67.75;99831.39;103355;1296;112417;-67
2022/12/20 08:20:27;;;;;;;27.20;11.10;;;;;;;1.65;67.77;99828.71;103360;1300;98561;-67
2022/12/20 08:22:56;;;;;;;25.40;11.20;;;;;;;1.67;67.68;99824.47;103287;1300;107813;-66
2022/12/20 08:25:26;;;;;;;24.20;10.30;;;;;;;1.70;67.99;99820.71;103274;1300;96582;-66
2022/12/20 08:27:54;;;;;;;28.10;11.70;;;;;;;1.73;67.46;99818.02;103299;1300;99168;-67
2022/12/20 08:30:22;;;;;;;26.10;11.20;;;;;;;1.75;67.74;99818.67;103328;1302;113157;-66
2022/12/20 08:32:50;;;;;;;23.90;10.90;;;;;;;1.78;67.38;99811.62;103334;1296;99404;-67
2022/12/20 08:35:22;;;;;;;28.20;12.50;;;;;;;1.80;67.62;99812.98;103354;1300;108832;-68
2022/12/20 08:37:52;;;;;;;27.20;11.70;;;;;;;1.82;67.83;99809.77;103311;1300;100276;-66
2022/12/20 08:40:20;;;;;;;27.70;12.40;;;;;;;1.87;67.82;99815.24;103284;1299;99234;-66
2022/12/20 08:42:49;;;;;;;26.30;11.40;;;;;;;1.92;68.08;99818.08;103325;1294;113058;-67
2022/12/20 08:45:19;;;;;;;24.20;11.00;;;;;;;1.96;67.83;99818.01;103334;1300;99318;-66
2022/12/20 08:47:47;;;;;;;27.20;11.60;;;;;;;1.98;66.91;99810.42;103297;1300;107475;-65
2022/12/20 08:50:18;;;;;;;25.00;11.00;;;;;;;1.97;67.74;99801.70;103290;1300;99324;-66
2022/12/20 08:52:46;;;;;;;26.40;11.10;;;;;;;1.96;67.09;99796.48;103305;1302;99192;-67
2022/12/20 08:55:14;;;;;;;24.90;10.10;;;;;;;1.97;67.91;99802.77;103288;1300;113178;-67
2022/12/20 08:57:42;;;;;;;27.40;11.00;;;;;;;2.03;67.27;99803.81;103353;1301;99292;-66
2022/12/20 09:00:13;;;;;;;24.30;10.90;;;;;;;2.12;66.58;99797.11;103337;1300;106773;-67
2022/12/20 09:02:41;;;;;;;23.20;10.60;;;;;;;2.30;66.65;99791.22;103349;1300;99266;-67
2022/12/20 09:05:11;;;;;;;30.00;11.30;;;;;;;2.58;66.73;99788.00;103371;1301;99354;-66
2022/12/20 09:07:39;;;;;;;24.90;10.70;;;;;;;2.92;67.36;99785.80;103338;1300;113307;-66
2022/12/20 09:10:11;;;;;;;27.30;11.40;;;;;;;3.30;67.03;99793.95;103354;1296;99228;-65
2022/12/20 09:12:39;;;;;;;25.00;11.10;;;;;;;3.74;66.71;99799.91;103349;1300;107465;-65
2022/12/20 09:15:12;;;;;;;25.70;10.90;;;;;;;4.11;66.15;99782.88;103339;1295;96486;-67
2022/12/20 09:17:39;;;;;;;24.40;9.30;;;;;;;4.47;66.64;99803.06;103366;1294;99263;-66
2022/12/20 09:20:10;;;;;;;22.40;9.40;;;;;;;4.72;66.64;99790.95;103346;1294;112785;-67
2022/12/20 09:22:38;;;;;;;25.80;11.20;;;;;;;4.92;66.49;99792.11;103367;1295;99924;-67
2022/12/20 09:25:10;;;;;;;25.80;10.80;;;;;;;4.97;65.49;99782.26;103346;1300;107537;-66
2022/12/20 09:27:38;;;;;;;24.80;11.20;;;;;;;4.94;65.21;99773.95;103325;1293;99222;-66
2022/12/20 09:30:09;;;;;;;26.30;10.80;;;;;;;4.87;65.66;99771.39;103250;1301;99274;-66
2022/12/20 09:32:37;;;;;;;26.10;10.80;;;;;;;4.85;65.32;99769.02;103246;1300;111607;-65
2022/12/20 09:35:09;;;;;;;24.30;10.80;;;;;;;4.73;64.67;99764.70;103262;1294;99244;-66
2022/12/20 09:37:37;;;;;;;24.10;10.80;;;;;;;4.60;65.34;99760.26;103191;1295;108724;-66
2022/12/20 09:40:19;;;;;;;24.90;11.20;;;;;;;4.49;64.78;99768.41;103216;1300;99257;-67
2022/12/20 09:42:52;;;;;;;24.10;9.90;;;;;;;4.43;65.02;99765.80;103255;1300;99931;-67
2022/12/20 09:45:31;;;;;;;23.30;10.60;;;;;;;4.32;63.64;99769.53;103242;1294;112581;-70
2022/12/20 09:48:01;;;;;;;22.90;9.50;;;;;;;4.20;65.12;99774.88;103216;1300;99301;-67
2022/12/20 09:50:47;;;;;;;27.20;11.00;;;;;;;4.22;65.67;99773.38;103236;1294;108174;-67
2022/12/20 09:53:37;;;;;;;25.50;11.20;;;;;;;4.08;64.20;99758.77;103226;1295;96543;-66
2022/12/20 09:56:16;;;;;;;25.50;10.40;;;;;;;3.95;64.96;99764.13;103316;1300;99219;-66
2022/12/20 09:58:58;;;;;;;24.50;11.00;;;;;;;3.80;64.10;99760.42;103287;1296;112258;-66
2022/12/20 10:01:30;;;;;;;25.90;11.90;;;;;;;3.66;64.61;99756.31;103251;1295;99199;-66
2022/12/20 10:04:24;;;;;;;24.90;11.40;;;;;;;3.53;63.51;99756.73;103229;1295;107169;-66
2022/12/20 10:07:23;;;;;;;24.20;10.80;;;;;;;3.44;64.81;99751.95;103241;1301;99258;-67
2022/12/20 10:09:51;;;;;;;24.10;11.00;;;;;;;3.39;64.52;99748.26;103245;1294;99340;-66
2022/12/20 10:12:22;;;;;;;24.90;10.40;;;;;;;3.36;64.32;99746.27;103219;1294;113456;-66
2022/12/20 10:15:14;;;;;;;26.20;11.50;;;;;;;3.37;63.44;99739.58;103238;1297;99292;-67
2022/12/20 10:18:21;;;;;;;24.30;10.20;;;;;;;3.33;62.81;99728.64;103211;1297;108301;-67
2022/12/20 10:21:09;;;;;;;;;;;;;;;3.30;63.94;99730.84;103215;1300;97907;-68
2022/12/20 10:23:52;;;;;;;25.10;10.30;;;;;;;3.31;63.34;99727.30;103081;1300;96477;-67
2022/12/20 10:26:21;;;;;;;26.00;10.70;;;;;;;3.39;63.78;99722.31;103179;1300;113221;-66
2022/12/20 10:28:51;;;;;;;23.90;10.20;;;;;;;3.41;62.66;99712.59;103236;1295;96528;-66
2022/12/20 10:31:25;;;;;;;26.70;11.00;;;;;;;3.45;63.86;99713.52;103198;1294;108125;-66
2022/12/20 10:33:54;;;;;;;26.00;11.50;;;;;;;3.52;63.67;99710.30;103232;1300;96859;-67
2022/12/20 10:36:28;;;;;;;27.10;11.10;;;;;;;3.55;63.09;99711.25;103253;1294;99319;-66
2022/12/20 10:39:09;;;;;;;23.90;10.50;;;;;;;3.50;63.09;99704.39;103273;1300;113545;-66
2022/12/20 10:41:40;;;;;;;23.80;10.00;;;;;;;3.44;63.32;99700.23;103299;1300;99324;-67
2022/12/20 10:44:14;;;;;;;24.90;10.20;;;;;;;3.40;62.36;99706.51;103301;1295;107533;-67
2022/12/20 10:46:50;;;;;;;27.50;12.20;;;;;;;3.31;61.93;99702.04;103299;1293;99233;-67
2022/12/20 10:49:42;;;;;;;24.90;10.50;;;;;;;3.26;63.18;99695.38;103301;1302;99263;-67
2022/12/20 10:52:17;;;;;;;22.40;10.20;;;;;;;3.29;63.77;99699.48;103204;1296;112527;-68
2022/12/20 10:54:47;;;;;;;24.40;10.80;;;;;;;3.30;63.11;99689.98;103298;1297;97711;-67
2022/12/20 10:57:18;;;;;;;26.00;11.40;;;;;;;3.28;63.32;99690.40;103258;1294;107763;-67
2022/12/20 10:59:56;;;;;;;27.10;10.90;;;;;;;3.27;63.53;99685.17;103285;1302;99304;-68
2022/12/20 11:02:31;;;;;;;25.00;10.10;;;;;;;3.30;62.82;99675.60;103375;1294;96533;-67
2022/12/20 11:05:10;;;;;;;22.90;10.20;;;;;;;3.34;62.46;99682.33;103240;1295;113003;-68
2022/12/20 11:08:17;;;;;;;24.00;10.00;;;;;;;3.31;63.08;99680.84;103319;1294;96469;-68
2022/12/20 11:11:24;;;;;;;25.40;10.40;;;;;;;3.26;62.81;99679.95;103237;1295;107779;-67
2022/12/20 11:14:14;;;;;;;26.60;10.70;;;;;;;3.26;62.94;99683.45;103248;1297;99306;-67
2022/12/20 11:16:46;;;;;;;25.60;11.00;;;;;;;3.29;61.67;99683.20;103320;1294;99174;-67
2022/12/20 11:19:58;;;;;;;23.60;10.30;;;;;;;3.31;62.56;99677.70;103278;1294;111638;-66
2022/12/20 11:23:02;;;;;;;24.50;10.20;;;;;;;3.35;61.80;99683.16;103231;1295;99101;-67
2022/12/20 11:25:56;;;;;;;24.20;11.10;;;;;;;3.31;61.90;99680.33;103071;1295;108278;-67
2022/12/20 11:28:43;;;;;;;27.60;11.20;;;;;;;3.25;62.27;99676.48;102962;1309;99350;-68
2022/12/20 11:31:24;;;;;;;23.90;10.70;;;;;;;3.28;62.06;99675.34;103311;1297;98312;-67
2022/12/20 11:34:21;;;;;;;25.70;10.40;;;;;;;3.26;61.26;99676.09;103271;1294;113270;-67
2022/12/20 11:36:52;;;;;;;24.10;10.10;;;;;;;3.24;62.08;99673.39;103111;1298;97008;-67
2022/12/20 11:39:35;;;;;;;26.00;10.40;;;;;;;3.24;62.37;99665.30;103309;1303;108358;-68
2022/12/20 11:42:18;;;;;;;25.80;11.00;;;;;;;3.25;62.08;99660.36;103311;1301;99247;-68
2022/12/20 11:45:00;;;;;;;24.40;10.80;;;;;;;3.27;62.67;99666.41;103360;1300;99256;-66
2022/12/20 11:47:54;;;;;;;26.30;11.20;;;;;;;3.32;61.84;99665.38;103328;1297;113074;-67
2022/12/20 11:50:48;;;;;;;26.20;11.50;;;;;;;3.30;61.98;99661.43;103328;1302;96487;-67
2022/12/20 11:53:44;;;;;;;26.70;11.20;;;;;;;3.27;61.43;99666.25;103273;1302;107120;-67